sensor_id;sensor_type;location;lat;lon;timestamp;pressure;altitude;pressure_sealevel;temperature;humidity
14594;BME280;7383;52.354;9.756;2022-12-29T00:02:09;-12636.34;;;10.40;100.00
14594;BME280;7383;52.354;9.756;2022-12-29T00:04:36;-12637.41;;;10.46;100.00
14594;BME280;7383;52.354;9.756;2022-12-29T00:07:02;-12638.19;;;10.50;100.00
14594;BME280;7383;52.354;9.756;2022-12-29T00:09:30;-12638.03;;;10.49;100.00
14594;BME280;7383;52.354;9.756;2022-12-29T00:11:57;-12638.91;;;10.54;100.00
14594;BME280;7383;52.354;9.756;2022-12-29T00:14:25;-12639.25;;;10.56;100.00
14594;BME280;7383;52.354;9.756;2022-12-29T00:17:09;-12639.06;;;10.55;100.00
14594;BME280;7383;52.354;9.756;2022-12-29T00:19:35;-12639.94;;;10.60;100.00
14594;BME280;7383;52.354;9.756;2022-12-29T00:22:19;-12640.56;;;10.64;100.00
14594;BME280;7383;52.354;9.756;2022-12-29T00:25:05;-12640.56;;;10.64;100.00
14594;BME280;7383;52.354;9.756;2022-12-29T00:27:49;-12640.91;;;10.66;100.00
14594;BME280;7383;52.354;9.756;2022-12-29T00:30:35;-12641.25;;;10.68;100.00
14594;BME280;7383;52.354;9.756;2022-12-29T00:33:21;-12641.06;;;10.67;100.00
14594;BME280;7383;52.354;9.756;2022-12-29T00:36:09;-12641.59;;;10.70;100.00
14594;BME280;7383;52.354;9.756;2022-12-29T00:38:40;-12641.50;;;10.69;100.00
14594;BME280;7383;52.354;9.756;2022-12-29T00:41:27;-12641.69;;;10.70;100.00
14594;BME280;7383;52.354;9.756;2022-12-29T00:44:13;-12641.88;;;10.71;100.00
14594;BME280;7383;52.354;9.756;2022-12-29T00:46:42;-12642.03;;;10.72;100.00
14594;BME280;7383;52.354;9.756;2022-12-29T00:49:10;-12642.38;;;10.74;100.00
14594;BME280;7383;52.354;9.756;2022-12-29T00:51:55;-12642.66;;;10.76;100.00
14594;BME280;7383;52.354;9.756;2022-12-29T00:54:22;-12642.66;;;10.76;100.00
14594;BME280;7383;52.354;9.756;2022-12-29T00:56:51;-12643.16;;;10.79;100.00
14594;BME280;7383;52.354;9.756;2022-12-29T00:59:18;-12643.34;;;10.80;100.00
14594;BME280;7383;52.354;9.756;2022-12-29T01:01:47;-12643.44;;;10.80;100.00
14594;BME280;7383;52.354;9.756;2022-12-29T01:04:14;-12643.34;;;10.80;100.00
14594;BME280;7383;52.354;9.756;2022-12-29T01:06:40;-12643.78;;;10.82;100.00
14594;BME280;7383;52.354;9.756;2022-12-29T01:09:07;-12644.03;;;10.84;100.00
14594;BME280;7383;52.354;9.756;2022-12-29T01:11:52;-12643.53;;;10.81;100.00
14594;BME280;7383;52.354;9.756;2022-12-29T01:14:19;-12643.53;;;10.81;100.00
14594;BME280;7383;52.354;9.756;2022-12-29T01:16:48;-12643.09;;;10.78;100.00
14594;BME280;7383;52.354;9.756;2022-12-29T01:19:16;-12642.81;;;10.77;100.00
14594;BME280;7383;52.354;9.756;2022-12-29T01:21:43;-12642.66;;;10.76;100.00
14594;BME280;7383;52.354;9.756;2022-12-29T01:24:09;-12642.47;;;10.75;100.00
14594;BME280;7383;52.354;9.756;2022-12-29T01:26:36;-12642.31;;;10.74;100.00
14594;BME280;7383;52.354;9.756;2022-12-29T01:29:03;-12642.31;;;10.74;100.00
14594;BME280;7383;52.354;9.756;2022-12-29T01:31:29;-12642.56;;;10.75;100.00
14594;BME280;7383;52.354;9.756;2022-12-29T01:33:57;-12642.56;;;10.75;100.00
14594;BME280;7383;52.354;9.756;2022-12-29T01:36:24;-12642.56;;;10.75;100.00
14594;BME280;7383;52.354;9.756;2022-12-29T01:38:51;-12642.47;;;10.75;100.00
14594;BME280;7383;52.354;9.756;2022-12-29T01:41:18;-12642.47;;;10.75;100.00
14594;BME280;7383;52.354;9.756;2022-12-29T01:43:46;-12642.47;;;10.75;100.00
14594;BME280;7383;52.354;9.756;2022-12-29T01:46:20;-12642.47;;;10.75;100.00
14594;BME280;7383;52.354;9.756;2022-12-29T01:48:51;-12641.69;;;10.70;100.00
14594;BME280;7383;52.354;9.756;2022-12-29T01:51:22;-12641.94;;;10.72;100.00
14594;BME280;7383;52.354;9.756;2022-12-29T01:53:49;-12641.88;;;10.71;100.00
14594;BME280;7383;52.354;9.756;2022-12-29T01:56:19;-12641.00;;;10.66;100.00
14594;BME280;7383;52.354;9.756;2022-12-29T01:58:49;-12640.47;;;10.63;100.00
14594;BME280;7383;52.354;9.756;2022-12-29T02:01:18;-12641.00;;;10.66;100.00
14594;BME280;7383;52.354;9.756;2022-12-29T02:03:46;-12640.38;;;10.63;100.00
14594;BME280;7383;52.354;9.756;2022-12-29T02:06:16;-12640.28;;;10.62;100.00
14594;BME280;7383;52.354;9.756;2022-12-29T02:08:46;-12640.03;;;10.61;100.00
14594;BME280;7383;52.354;9.756;2022-12-29T02:11:13;-12640.56;;;10.64;100.00
14594;BME280;7383;52.354;9.756;2022-12-29T02:13:40;-12640.03;;;10.61;100.00
14594;BME280;7383;52.354;9.756;2022-12-29T02:16:16;-12640.28;;;10.62;100.00
14594;BME280;7383;52.354;9.756;2022-12-29T02:18:51;-12640.72;;;10.65;100.00
14594;BME280;7383;52.354;9.756;2022-12-29T02:21:48;-12641.16;;;10.67;100.00
14594;BME280;7383;52.354;9.756;2022-12-29T02:27:40;-12642.03;;;10.72;100.00
14594;BME280;7383;52.354;9.756;2022-12-29T02:30:16;-12642.91;;;10.77;100.00
14594;BME280;7383;52.354;9.756;2022-12-29T02:32:55;-12643.44;;;10.80;100.00
14594;BME280;7383;52.354;9.756;2022-12-29T02:35:30;-12643.78;;;10.82;100.00
14594;BME280;7383;52.354;9.756;2022-12-29T02:38:05;-12644.41;;;10.86;100.00
14594;BME280;7383;52.354;9.756;2022-12-29T02:40:39;-12645.00;;;10.90;100.00
14594;BME280;7383;52.354;9.756;2022-12-29T02:43:14;-12645.09;;;10.90;100.00
14594;BME280;7383;52.354;9.756;2022-12-29T02:45:51;-12645.53;;;10.93;100.00
14594;BME280;7383;52.354;9.756;2022-12-29T02:48:25;-12645.78;;;10.94;100.00
14594;BME280;7383;52.354;9.756;2022-12-29T02:51:02;-12646.06;;;10.96;100.00
14594;BME280;7383;52.354;9.756;2022-12-29T02:53:31;-12646.56;;;10.99;100.00
14594;BME280;7383;52.354;9.756;2022-12-29T02:56:16;-12647.19;;;11.02;100.00
14594;BME280;7383;52.354;9.756;2022-12-29T02:58:42;-12647.63;;;11.05;100.00
14594;BME280;7383;52.354;9.756;2022-12-29T03:01:27;-12648.16;;;11.08;100.00
14594;BME280;7383;52.354;9.756;2022-12-29T03:04:07;-12648.50;;;11.10;100.00
14594;BME280;7383;52.354;9.756;2022-12-29T03:06:46;-12648.50;;;11.10;100.00
14594;BME280;7383;52.354;9.756;2022-12-29T03:09:25;-12648.84;;;11.12;100.00
14594;BME280;7383;52.354;9.756;2022-12-29T03:11:57;-12648.94;;;11.12;100.00
14594;BME280;7383;52.354;9.756;2022-12-29T03:14:44;-12649.19;;;11.14;100.00
14594;BME280;7383;52.354;9.756;2022-12-29T03:17:41;-12649.72;;;11.17;100.00
14594;BME280;7383;52.354;9.756;2022-12-29T03:20:16;-12649.97;;;11.18;100.00
14594;BME280;7383;52.354;9.756;2022-12-29T03:22:47;-12650.06;;;11.19;100.00
14594;BME280;7383;52.354;9.756;2022-12-29T03:25:19;-12650.16;;;11.19;100.00
14594;BME280;7383;52.354;9.756;2022-12-29T03:27:50;-12651.03;;;11.24;100.00
14594;BME280;7383;52.354;9.756;2022-12-29T03:30:19;-12651.28;;;11.26;100.00
14594;BME280;7383;52.354;9.756;2022-12-29T03:32:49;-12651.28;;;11.26;100.00
14594;BME280;7383;52.354;9.756;2022-12-29T03:35:20;-12652.00;;;11.30;100.00
14594;BME280;7383;52.354;9.756;2022-12-29T03:37:52;-12651.91;;;11.29;100.00
14594;BME280;7383;52.354;9.756;2022-12-29T03:40:23;-12652.34;;;11.32;100.00
14594;BME280;7383;52.354;9.756;2022-12-29T03:42:52;-12652.41;;;11.32;100.00
14594;BME280;7383;52.354;9.756;2022-12-29T03:45:19;-12652.69;;;11.34;100.00
14594;BME280;7383;52.354;9.756;2022-12-29T03:47:46;-12652.94;;;11.35;100.00
14594;BME280;7383;52.354;9.756;2022-12-29T03:50:13;-12653.38;;;11.38;100.00
14594;BME280;7383;52.354;9.756;2022-12-29T03:52:41;-12653.56;;;11.39;100.00
14594;BME280;7383;52.354;9.756;2022-12-29T03:55:08;-12654.34;;;11.44;100.00
14594;BME280;7383;52.354;9.756;2022-12-29T03:57:34;-12654.16;;;11.43;100.00
14594;BME280;7383;52.354;9.756;2022-12-29T04:00:01;-12654.34;;;11.44;100.00
14594;BME280;7383;52.354;9.756;2022-12-29T04:02:27;-12654.34;;;11.44;100.00
14594;BME280;7383;52.354;9.756;2022-12-29T04:04:54;-12655.03;;;11.48;100.00
14594;BME280;7383;52.354;9.756;2022-12-29T04:07:20;-12655.47;;;11.50;100.00
14594;BME280;7383;52.354;9.756;2022-12-29T04:09:48;-12656.25;;;11.55;100.00
14594;BME280;7383;52.354;9.756;2022-12-29T04:12:14;-12656.78;;;11.58;100.00
14594;BME280;7383;52.354;9.756;2022-12-29T04:14:41;-12657.41;;;11.61;100.00
14594;BME280;7383;52.354;9.756;2022-12-29T04:17:07;-12658.00;;;11.65;100.00
14594;BME280;7383;52.354;9.756;2022-12-29T04:19:34;-12658.28;;;11.66;100.00
14594;BME280;7383;52.354;9.756;2022-12-29T04:22:00;-12658.63;;;11.68;100.00
14594;BME280;7383;52.354;9.756;2022-12-29T04:24:25;-12658.88;;;11.70;100.00
14594;BME280;7383;52.354;9.756;2022-12-29T04:26:53;-12658.88;;;11.70;100.00
14594;BME280;7383;52.354;9.756;2022-12-29T04:29:20;-12659.41;;;11.73;100.00
14594;BME280;7383;52.354;9.756;2022-12-29T04:31:46;-12659.84;;;11.75;100.00
14594;BME280;7383;52.354;9.756;2022-12-29T04:34:13;-12660.38;;;11.78;100.00
14594;BME280;7383;52.354;9.756;2022-12-29T04:36:39;-12660.28;;;11.78;100.00
14594;BME280;7383;52.354;9.756;2022-12-29T04:39:06;-12661.31;;;11.84;100.00
14594;BME280;7383;52.354;9.756;2022-12-29T04:41:33;-12661.94;;;11.88;100.00
14594;BME280;7383;52.354;9.756;2022-12-29T04:44:01;-12662.28;;;11.90;100.00
14594;BME280;7383;52.354;9.756;2022-12-29T04:46:27;-12662.81;;;11.93;100.00
14594;BME280;7383;52.354;9.756;2022-12-29T04:48:54;-12662.53;;;11.91;100.00
14594;BME280;7383;52.354;9.756;2022-12-29T04:51:20;-12663.06;;;11.94;100.00
14594;BME280;7383;52.354;9.756;2022-12-29T04:53:47;-12663.16;;;11.95;100.00
14594;BME280;7383;52.354;9.756;2022-12-29T04:56:14;-12663.50;;;11.97;100.00
14594;BME280;7383;52.354;9.756;2022-12-29T04:58:40;-12663.50;;;11.97;100.00
14594;BME280;7383;52.354;9.756;2022-12-29T05:01:08;-12663.94;;;11.99;100.00
14594;BME280;7383;52.354;9.756;2022-12-29T05:03:34;-12664.19;;;12.01;100.00
14594;BME280;7383;52.354;9.756;2022-12-29T05:06:01;-12664.91;;;12.05;100.00
14594;BME280;7383;52.354;9.756;2022-12-29T05:08:28;-12665.50;;;12.08;100.00
14594;BME280;7383;52.354;9.756;2022-12-29T05:10:54;-12665.78;;;12.10;100.00
14594;BME280;7383;52.354;9.756;2022-12-29T05:13:21;-12665.84;;;12.10;100.00
14594;BME280;7383;52.354;9.756;2022-12-29T05:15:49;-12665.84;;;12.10;100.00
14594;BME280;7383;52.354;9.756;2022-12-29T05:18:18;-12666.47;;;12.14;100.00
14594;BME280;7383;52.354;9.756;2022-12-29T05:20:45;-12666.19;;;12.12;100.00
14594;BME280;7383;52.354;9.756;2022-12-29T05:23:12;-12665.94;;;12.11;100.00
14594;BME280;7383;52.354;9.756;2022-12-29T05:25:38;-12666.03;;;12.11;100.00
14594;BME280;7383;52.354;9.756;2022-12-29T05:28:05;-12665.84;;;12.10;100.00
14594;BME280;7383;52.354;9.756;2022-12-29T05:30:31;-12666.28;;;12.13;100.00
14594;BME280;7383;52.354;9.756;2022-12-29T05:32:58;-12666.19;;;12.12;100.00
14594;BME280;7383;52.354;9.756;2022-12-29T05:35:26;-12666.13;;;12.12;100.00
14594;BME280;7383;52.354;9.756;2022-12-29T05:37:52;-12666.56;;;12.14;100.00
14594;BME280;7383;52.354;9.756;2022-12-29T05:40:27;-12666.72;;;12.15;100.00
14594;BME280;7383;52.354;9.756;2022-12-29T05:42:57;-12667.06;;;12.17;100.00
14594;BME280;7383;52.354;9.756;2022-12-29T05:45:24;-12667.06;;;12.17;100.00
14594;BME280;7383;52.354;9.756;2022-12-29T05:47:51;-12666.72;;;12.15;100.00
14594;BME280;7383;52.354;9.756;2022-12-29T05:50:17;-12666.72;;;12.15;100.00
14594;BME280;7383;52.354;9.756;2022-12-29T05:52:45;-12666.56;;;12.14;100.00
14594;BME280;7383;52.354;9.756;2022-12-29T05:55:12;-12665.94;;;12.11;100.00
14594;BME280;7383;52.354;9.756;2022-12-29T05:57:39;-12664.97;;;12.05;100.00
14594;BME280;7383;52.354;9.756;2022-12-29T06:00:06;-12664.13;;;12.00;100.00
14594;BME280;7383;52.354;9.756;2022-12-29T06:02:33;-12663.50;;;11.97;100.00
14594;BME280;7383;52.354;9.756;2022-12-29T06:05:00;-12662.91;;;11.93;100.00
14594;BME280;7383;52.354;9.756;2022-12-29T06:07:26;-12661.50;;;11.85;100.00
14594;BME280;7383;52.354;9.756;2022-12-29T06:09:54;-12661.16;;;11.83;100.00
14594;BME280;7383;52.354;9.756;2022-12-29T06:12:20;-12660.28;;;11.78;100.00
14594;BME280;7383;52.354;9.756;2022-12-29T06:14:46;-12659.22;;;11.72;100.00
14594;BME280;7383;52.354;9.756;2022-12-29T06:17:13;-12658.09;;;11.65;100.00
14594;BME280;7383;52.354;9.756;2022-12-29T06:19:39;-12657.75;;;11.63;100.00
14594;BME280;7383;52.354;9.756;2022-12-29T06:22:06;-12657.13;;;11.60;100.00
14594;BME280;7383;52.354;9.756;2022-12-29T06:24:32;-12657.22;;;11.60;100.00
14594;BME280;7383;52.354;9.756;2022-12-29T06:27:00;-12657.31;;;11.61;100.00
14594;BME280;7383;52.354;9.756;2022-12-29T06:29:27;-12657.13;;;11.60;100.00
14594;BME280;7383;52.354;9.756;2022-12-29T06:31:53;-12657.66;;;11.63;100.00
14594;BME280;7383;52.354;9.756;2022-12-29T06:34:22;-12656.97;;;11.59;100.00
14594;BME280;7383;52.354;9.756;2022-12-29T06:36:49;-12656.34;;;11.55;100.00
14594;BME280;7383;52.354;9.756;2022-12-29T06:39:15;-12656.00;;;11.53;100.00
14594;BME280;7383;52.354;9.756;2022-12-29T06:41:42;-12655.31;;;11.49;100.00
14594;BME280;7383;52.354;9.756;2022-12-29T06:44:10;-12655.31;;;11.49;100.00
14594;BME280;7383;52.354;9.756;2022-12-29T06:46:36;-12655.31;;;11.49;100.00
14594;BME280;7383;52.354;9.756;2022-12-29T06:49:02;-12656.00;;;11.53;100.00
14594;BME280;7383;52.354;9.756;2022-12-29T06:51:29;-12656.00;;;11.53;100.00
14594;BME280;7383;52.354;9.756;2022-12-29T06:53:55;-12656.25;;;11.55;100.00
14594;BME280;7383;52.354;9.756;2022-12-29T06:56:21;-12657.13;;;11.60;100.00
14594;BME280;7383;52.354;9.756;2022-12-29T06:58:48;-12657.66;;;11.63;100.00
14594;BME280;7383;52.354;9.756;2022-12-29T07:01:16;-12658.53;;;11.68;100.00
14594;BME280;7383;52.354;9.756;2022-12-29T07:03:43;-12659.50;;;11.73;100.00
14594;BME280;7383;52.354;9.756;2022-12-29T07:06:09;-12660.00;;;11.76;100.00
14594;BME280;7383;52.354;9.756;2022-12-29T07:08:35;-12660.19;;;11.77;100.00
14594;BME280;7383;52.354;9.756;2022-12-29T07:11:02;-12660.72;;;11.80;100.00
14594;BME280;7383;52.354;9.756;2022-12-29T07:13:28;-12661.59;;;11.86;100.00
14594;BME280;7383;52.354;9.756;2022-12-29T07:15:55;-12661.84;;;11.87;100.00
14594;BME280;7383;52.354;9.756;2022-12-29T07:18:23;-12662.81;;;11.93;100.00
14594;BME280;7383;52.354;9.756;2022-12-29T07:20:49;-12664.03;;;12.00;100.00
14594;BME280;7383;52.354;9.756;2022-12-29T07:23:16;-12664.91;;;12.05;100.00
14594;BME280;7383;52.354;9.756;2022-12-29T07:25:42;-12665.25;;;12.07;100.00
14594;BME280;7383;52.354;9.756;2022-12-29T07:28:12;-12665.41;;;12.08;100.00
14594;BME280;7383;52.354;9.756;2022-12-29T07:30:39;-12665.25;;;12.07;100.00
14594;BME280;7383;52.354;9.756;2022-12-29T07:33:05;-12664.91;;;12.05;100.00
14594;BME280;7383;52.354;9.756;2022-12-29T07:35:34;-12663.94;;;11.99;100.00
14594;BME280;7383;52.354;9.756;2022-12-29T07:38:01;-12661.16;;;11.83;100.00
14594;BME280;7383;52.354;9.756;2022-12-29T07:40:27;-12659.22;;;11.72;100.00
14594;BME280;7383;52.354;9.756;2022-12-29T07:42:53;-12657.41;;;11.61;100.00
14594;BME280;7383;52.354;9.756;2022-12-29T07:45:20;-12656.25;;;11.55;100.00
14594;BME280;7383;52.354;9.756;2022-12-29T07:47:47;-12655.91;;;11.53;100.00
14594;BME280;7383;52.354;9.756;2022-12-29T07:50:14;-12656.19;;;11.54;100.00
14594;BME280;7383;52.354;9.756;2022-12-29T07:52:42;-12655.66;;;11.51;100.00
14594;BME280;7383;52.354;9.756;2022-12-29T07:55:08;-12654.88;;;11.47;100.00
14594;BME280;7383;52.354;9.756;2022-12-29T07:57:35;-12654.44;;;11.44;100.00
14594;BME280;7383;52.354;9.756;2022-12-29T08:00:02;-12654.09;;;11.42;100.00
14594;BME280;7383;52.354;9.756;2022-12-29T08:02:29;-12653.56;;;11.39;100.00
14594;BME280;7383;52.354;9.756;2022-12-29T08:04:56;-12653.03;;;11.36;100.00
14594;BME280;7383;52.354;9.756;2022-12-29T08:07:22;-12652.94;;;11.35;100.00
14594;BME280;7383;52.354;9.756;2022-12-29T08:09:50;-12652.94;;;11.35;100.00
14594;BME280;7383;52.354;9.756;2022-12-29T08:12:16;-12652.50;;;11.33;100.00
14594;BME280;7383;52.354;9.756;2022-12-29T08:14:42;-12652.69;;;11.34;100.00
14594;BME280;7383;52.354;9.756;2022-12-29T08:17:09;-12653.22;;;11.37;100.00
14594;BME280;7383;52.354;9.756;2022-12-29T08:19:36;-12653.81;;;11.41;100.00
14594;BME280;7383;52.354;9.756;2022-12-29T08:22:02;-12654.25;;;11.43;100.00
14594;BME280;7383;52.354;9.756;2022-12-29T08:24:29;-12654.25;;;11.43;100.00
14594;BME280;7383;52.354;9.756;2022-12-29T08:26:56;-12654.53;;;11.45;100.00
14594;BME280;7383;52.354;9.756;2022-12-29T08:29:23;-12654.53;;;11.45;100.00
14594;BME280;7383;52.354;9.756;2022-12-29T08:31:49;-12654.53;;;11.45;100.00
14594;BME280;7383;52.354;9.756;2022-12-29T08:34:16;-12654.53;;;11.45;100.00
14594;BME280;7383;52.354;9.756;2022-12-29T08:36:42;-12655.22;;;11.49;100.00
14594;BME280;7383;52.354;9.756;2022-12-29T08:39:09;-12656.00;;;11.53;100.00
14594;BME280;7383;52.354;9.756;2022-12-29T08:41:37;-12656.53;;;11.56;100.00
14594;BME280;7383;52.354;9.756;2022-12-29T08:44:05;-12656.78;;;11.58;100.00
14594;BME280;7383;52.354;9.756;2022-12-29T08:46:32;-12656.88;;;11.58;100.00
14594;BME280;7383;52.354;9.756;2022-12-29T08:48:58;-12657.84;;;11.64;100.00
14594;BME280;7383;52.354;9.756;2022-12-29T08:51:24;-12658.19;;;11.66;100.00
14594;BME280;7383;52.354;9.756;2022-12-29T08:53:51;-12658.69;;;11.69;100.00
14594;BME280;7383;52.354;9.756;2022-12-29T08:56:18;-12658.28;;;11.66;100.00
14594;BME280;7383;52.354;9.756;2022-12-29T08:58:44;-12658.09;;;11.65;100.00
14594;BME280;7383;52.354;9.756;2022-12-29T09:01:12;-12657.03;;;11.59;100.00
14594;BME280;7383;52.354;9.756;2022-12-29T09:03:39;-12656.78;;;11.58;100.00
14594;BME280;7383;52.354;9.756;2022-12-29T09:06:06;-12656.78;;;11.58;100.00
14594;BME280;7383;52.354;9.756;2022-12-29T09:08:32;-12657.41;;;11.61;100.00
14594;BME280;7383;52.354;9.756;2022-12-29T09:11:06;-12657.84;;;11.64;100.00
14594;BME280;7383;52.354;9.756;2022-12-29T09:13:32;-12658.28;;;11.66;100.00
14594;BME280;7383;52.354;9.756;2022-12-29T09:15:59;-12658.28;;;11.66;100.00
14594;BME280;7383;52.354;9.756;2022-12-29T09:18:27;-12658.34;;;11.67;100.00
14594;BME280;7383;52.354;9.756;2022-12-29T09:20:56;-12658.44;;;11.67;100.00
14594;BME280;7383;52.354;9.756;2022-12-29T09:23:22;-12658.44;;;11.67;100.00
14594;BME280;7383;52.354;9.756;2022-12-29T09:25:49;-12658.44;;;11.67;100.00
14594;BME280;7383;52.354;9.756;2022-12-29T09:28:15;-12658.28;;;11.66;100.00
14594;BME280;7383;52.354;9.756;2022-12-29T09:30:42;-12659.06;;;11.71;100.00
14594;BME280;7383;52.354;9.756;2022-12-29T09:33:08;-12658.53;;;11.68;100.00
14594;BME280;7383;52.354;9.756;2022-12-29T09:35:36;-12658.97;;;11.70;100.00
14594;BME280;7383;52.354;9.756;2022-12-29T09:38:03;-12659.56;;;11.74;100.00
14594;BME280;7383;52.354;9.756;2022-12-29T09:40:31;-12660.19;;;11.77;100.00
14594;BME280;7383;52.354;9.756;2022-12-29T09:43:24;-12661.50;;;11.85;100.00
14594;BME280;7383;52.354;9.756;2022-12-29T09:46:00;-12661.41;;;11.84;100.00
14594;BME280;7383;52.354;9.756;2022-12-29T09:48:33;-12661.41;;;11.84;100.00
14594;BME280;7383;52.354;9.756;2022-12-29T09:51:07;-12660.97;;;11.82;100.00
14594;BME280;7383;52.354;9.756;2022-12-29T09:53:36;-12660.81;;;11.81;100.00
14594;BME280;7383;52.354;9.756;2022-12-29T09:56:05;-12660.81;;;11.81;100.00
14594;BME280;7383;52.354;9.756;2022-12-29T09:58:40;-12660.00;;;11.76;100.00
14594;BME280;7383;52.354;9.756;2022-12-29T10:01:21;-12658.28;;;11.66;100.00
14594;BME280;7383;52.354;9.756;2022-12-29T10:03:52;-12658.97;;;11.70;100.00
14594;BME280;7383;52.354;9.756;2022-12-29T10:06:24;-12659.75;;;11.75;100.00
14594;BME280;7383;52.354;9.756;2022-12-29T10:08:57;-12659.56;;;11.74;100.00
14594;BME280;7383;52.354;9.756;2022-12-29T10:11:38;-12659.31;;;11.72;100.00
14594;BME280;7383;52.354;9.756;2022-12-29T10:14:23;-12658.97;;;11.70;100.00
14594;BME280;7383;52.354;9.756;2022-12-29T10:17:01;-12657.41;;;11.61;100.00
14594;BME280;7383;52.354;9.756;2022-12-29T10:19:45;-12657.56;;;11.62;100.00
14594;BME280;7383;52.354;9.756;2022-12-29T10:22:28;-12657.66;;;11.63;100.00
14594;BME280;7383;52.354;9.756;2022-12-29T10:25:00;-12656.44;;;11.56;100.00
14594;BME280;7383;52.354;9.756;2022-12-29T10:27:30;-12656.63;;;11.57;100.00
14594;BME280;7383;52.354;9.756;2022-12-29T10:29:59;-12657.03;;;11.59;100.00
14594;BME280;7383;52.354;9.756;2022-12-29T10:32:32;-12657.13;;;11.60;100.00
14594;BME280;7383;52.354;9.756;2022-12-29T10:35:03;-12657.03;;;11.59;100.00
14594;BME280;7383;52.354;9.756;2022-12-29T10:37:39;-12657.75;;;11.63;100.00
14594;BME280;7383;52.354;9.756;2022-12-29T10:40:18;-12658.28;;;11.66;100.00
14594;BME280;7383;52.354;9.756;2022-12-29T10:42:48;-12658.53;;;11.68;100.00
14594;BME280;7383;52.354;9.756;2022-12-29T10:45:18;-12659.56;;;11.74;100.00
14594;BME280;7383;52.354;9.756;2022-12-29T10:47:52;-12660.63;;;11.80;100.00
14594;BME280;7383;52.354;9.756;2022-12-29T10:50:19;-12661.31;;;11.84;100.00
14594;BME280;7383;52.354;9.756;2022-12-29T10:52:47;-12663.31;;;11.96;100.00
14594;BME280;7383;52.354;9.756;2022-12-29T10:55:18;-12664.97;;;12.05;100.00
14594;BME280;7383;52.354;9.756;2022-12-29T10:57:46;-12665.34;;;12.07;100.00
14594;BME280;7383;52.354;9.756;2022-12-29T11:00:16;-12666.19;;;12.12;100.00
14594;BME280;7383;52.354;9.756;2022-12-29T11:03:08;-12666.38;;;12.13;100.00
14594;BME280;7383;52.354;9.756;2022-12-29T11:05:43;-12667.06;;;12.17;100.00
14594;BME280;7383;52.354;9.756;2022-12-29T11:08:15;-12667.34;;;12.19;100.00
14594;BME280;7383;52.354;9.756;2022-12-29T11:10:44;-12667.00;;;12.17;100.00
14594;BME280;7383;52.354;9.756;2022-12-29T11:13:13;-12667.78;;;12.21;100.00
14594;BME280;7383;52.354;9.756;2022-12-29T11:15:40;-12668.56;;;12.26;100.00
14594;BME280;7383;52.354;9.756;2022-12-29T11:18:18;-12671.88;;;12.45;100.00
14594;BME280;7383;52.354;9.756;2022-12-29T11:20:46;-12674.75;;;12.62;100.00
14594;BME280;7383;52.354;9.756;2022-12-29T11:23:25;-12676.56;;;12.72;100.00
14594;BME280;7383;52.354;9.756;2022-12-29T11:26:07;-12682.06;;;13.04;100.00
14594;BME280;7383;52.354;9.756;2022-12-29T11:28:34;-12686.31;;;13.29;100.00
14594;BME280;7383;52.354;9.756;2022-12-29T11:31:02;-12688.13;;;13.40;100.00
14594;BME280;7383;52.354;9.756;2022-12-29T11:33:29;-12688.75;;;13.43;100.00
14594;BME280;7383;52.354;9.756;2022-12-29T11:35:57;-12696.03;;;13.86;100.00
14594;BME280;7383;52.354;9.756;2022-12-29T11:38:33;-12704.22;;;14.33;100.00
14594;BME280;7383;52.354;9.756;2022-12-29T11:41:00;-12710.03;;;14.67;100.00
14594;BME280;7383;52.354;9.756;2022-12-29T11:43:31;-12712.19;;;14.79;100.00
14594;BME280;7383;52.354;9.756;2022-12-29T11:45:59;-12713.41;;;14.87;100.00
14594;BME280;7383;52.354;9.756;2022-12-29T11:48:29;-12741.75;;;16.52;100.00
14594;BME280;7383;52.354;9.756;2022-12-29T11:50:58;-12771.03;;;18.23;100.00
14594;BME280;7383;52.354;9.756;2022-12-29T11:53:28;-12797.63;;;19.79;100.00
14594;BME280;7383;52.354;9.756;2022-12-29T11:56:20;-12813.72;;;20.74;100.00
14594;BME280;7383;52.354;9.756;2022-12-29T11:58:56;-12797.81;;;19.80;100.00
14594;BME280;7383;52.354;9.756;2022-12-29T12:01:57;-12771.72;;;18.27;100.00
14594;BME280;7383;52.354;9.756;2022-12-29T12:04:26;-12769.66;;;18.15;100.00
14594;BME280;7383;52.354;9.756;2022-12-29T12:07:01;-12782.56;;;18.91;100.00
14594;BME280;7383;52.354;9.756;2022-12-29T12:09:33;-12788.59;;;19.26;100.00
14594;BME280;7383;52.354;9.756;2022-12-29T12:12:03;-12786.28;;;19.12;100.00
14594;BME280;7383;52.354;9.756;2022-12-29T12:14:34;-12757.38;;;17.43;100.00
14594;BME280;7383;52.354;9.756;2022-12-29T12:17:06;-12739.31;;;16.38;100.00
14594;BME280;7383;52.354;9.756;2022-12-29T12:19:40;-12723.72;;;15.47;100.00
14594;BME280;7383;52.354;9.756;2022-12-29T12:22:12;-12714.09;;;14.91;100.00
14594;BME280;7383;52.354;9.756;2022-12-29T12:24:44;-12704.13;;;14.32;100.00
14594;BME280;7383;52.354;9.756;2022-12-29T12:27:18;-12698.81;;;14.02;100.00
14594;BME280;7383;52.354;9.756;2022-12-29T12:29:50;-12695.53;;;13.82;100.00
14594;BME280;7383;52.354;9.756;2022-12-29T12:32:24;-12691.88;;;13.61;100.00
14594;BME280;7383;52.354;9.756;2022-12-29T12:34:53;-12691.00;;;13.56;100.00
14594;BME280;7383;52.354;9.756;2022-12-29T12:37:46;-12690.66;;;13.54;100.00
14594;BME280;7383;52.354;9.756;2022-12-29T12:40:35;-12687.72;;;13.37;100.00
14594;BME280;7383;52.354;9.756;2022-12-29T12:43:33;-12685.63;;;13.25;100.00
14594;BME280;7383;52.354;9.756;2022-12-29T12:46:13;-12682.56;;;13.07;100.00
14594;BME280;7383;52.354;9.756;2022-12-29T12:49:04;-12680.41;;;12.95;100.00
14594;BME280;7383;52.354;9.756;2022-12-29T12:51:47;-12679.44;;;12.89;100.00
14594;BME280;7383;52.354;9.756;2022-12-29T12:54:38;-12680.66;;;12.96;100.00
14594;BME280;7383;52.354;9.756;2022-12-29T12:57:13;-12679.25;;;12.88;100.00
14594;BME280;7383;52.354;9.756;2022-12-29T12:59:56;-12680.22;;;12.94;100.00
14594;BME280;7383;52.354;9.756;2022-12-29T13:02:40;-12680.13;;;12.93;100.00
14594;BME280;7383;52.354;9.756;2022-12-29T13:05:22;-12681.00;;;12.98;100.00
14594;BME280;7383;52.354;9.756;2022-12-29T13:07:59;-12681.19;;;12.99;100.00
14594;BME280;7383;52.354;9.756;2022-12-29T13:10:39;-12680.75;;;12.97;100.00
14594;BME280;7383;52.354;9.756;2022-12-29T13:13:31;-12680.56;;;12.96;100.00